Time,TemperatureF,DewpointF,PressureIn,WindDirection,WindDirectionDegrees,WindSpeedMPH,WindSpeedGustMPH,Humidity,HourlyPrecipIn,Conditions,Clouds,dailyrainin,SoftwareType,DateUTC
2013-02-08 00:01:00,41.0,39.0,-100.00,SW,232,7.0,14.0,92,-99.99,,,-99.99,,2013-02-08 08:01:00,
2013-02-08 00:11:00,41.0,38.0,-100.00,WSW,240,7.0,15.0,90,-99.99,,,-99.99,,2013-02-08 08:11:00,
2013-02-08 00:21:00,41.0,38.0,-100.00,WSW,243,6.0,14.0,90,-99.99,,,-99.99,,2013-02-08 08:21:00,
2013-02-08 00:32:00,41.0,39.0,-100.00,WSW,244,6.0,11.0,92,-99.99,,,-99.99,,2013-02-08 08:32:00,
2013-02-08 00:41:00,40.0,38.0,-100.00,SW,235,5.0,10.0,91,-99.99,,,-99.99,,2013-02-08 08:41:00,
2013-02-08 00:52:00,40.0,38.0,-100.00,WSW,238,6.0,10.0,91,-99.99,,,-99.99,,2013-02-08 08:52:00,
2013-02-08 01:02:00,40.0,38.0,-100.00,WSW,238,6.0,10.0,91,-99.99,,,-99.99,,2013-02-08 09:02:00,
2013-02-08 01:11:00,40.0,38.0,-100.00,SW,235,5.0,9.0,92,-99.99,,,-99.99,,2013-02-08 09:11:00,
2013-02-08 01:21:00,40.0,39.0,-100.00,SW,235,6.0,14.0,95,-99.99,,,-99.99,,2013-02-08 09:21:00,
2013-02-08 01:31:00,40.0,39.0,-100.00,SW,224,7.0,14.0,97,-99.99,,,-99.99,,2013-02-08 09:31:00,
2013-02-08 01:42:00,40.0,39.0,-100.00,WSW,237,7.0,13.0,98,-99.99,,,-99.99,,2013-02-08 09:42:00,
2013-02-08 01:51:00,40.0,40.0,-100.00,WSW,248,7.0,14.0,100,-99.99,,,-99.99,,2013-02-08 09:51:00,
2013-02-08 02:01:00,40.0,40.0,-100.00,West,264,8.0,15.0,100,-99.99,,,-99.99,,2013-02-08 10:01:00,
2013-02-08 02:11:00,39.0,39.0,-100.00,West,259,7.0,14.0,100,-99.99,,,-99.99,,2013-02-08 10:11:00,
2013-02-08 02:22:00,39.0,39.0,-100.00,WSW,258,8.0,15.0,100,-99.99,,,-99.99,,2013-02-08 10:22:00,
2013-02-08 02:31:00,39.0,38.0,-100.00,WSW,250,9.0,18.0,98,-99.99,,,-99.99,,2013-02-08 10:31:00,
2013-02-08 02:41:00,39.0,37.0,-100.00,WSW,244,8.0,15.0,94,-99.99,,,-99.99,,2013-02-08 10:41:00,
2013-02-08 02:51:00,39.0,37.0,-100.00,WSW,242,7.0,12.0,94,-99.99,,,-99.99,,2013-02-08 10:51:00,
2013-02-08 03:01:00,39.0,38.0,-100.00,WSW,247,8.0,16.0,95,-99.99,,,-99.99,,2013-02-08 11:01:00,
2013-02-08 03:11:00,39.0,38.0,-100.00,WSW,246,7.0,13.0,95,-99.99,,,-99.99,,2013-02-08 11:11:00,
2013-02-08 03:21:00,39.0,38.0,-100.00,WSW,248,9.0,17.0,96,-99.99,,,-99.99,,2013-02-08 11:21:00,
2013-02-08 03:32:00,39.0,38.0,-100.00,WSW,245,7.0,11.0,97,-99.99,,,-99.99,,2013-02-08 11:32:00,
2013-02-08 03:41:00,39.0,38.0,-100.00,WSW,246,7.0,13.0,98,-99.99,,,-99.99,,2013-02-08 11:41:00,
2013-02-08 03:52:00,39.0,39.0,-100.00,WSW,256,8.0,15.0,100,-99.99,,,-99.99,,2013-02-08 11:52:00,
2013-02-08 04:01:00,39.0,39.0,-100.00,West,259,8.0,14.0,100,-99.99,,,-99.99,,2013-02-08 12:01:00,
2013-02-08 04:11:00,39.0,39.0,-100.00,West,260,7.0,14.0,100,-99.99,,,-99.99,,2013-02-08 12:11:00,
2013-02-08 04:22:00,39.0,39.0,-100.00,WSW,258,8.0,13.0,100,-99.99,,,-99.99,,2013-02-08 12:22:00,
2013-02-08 04:32:00,39.0,39.0,-100.00,West,261,8.0,13.0,100,-99.99,,,-99.99,,2013-02-08 12:32:00,
2013-02-08 04:42:00,39.0,39.0,-100.00,West,262,8.0,15.0,99,-99.99,,,-99.99,,2013-02-08 12:42:00,
2013-02-08 04:52:00,39.0,39.0,-100.00,WSW,249,8.0,14.0,99,-99.99,,,-99.99,,2013-02-08 12:52:00,
2013-02-08 05:01:00,39.0,39.0,-100.00,WSW,251,10.0,15.0,99,-99.99,,,-99.99,,2013-02-08 13:01:00,
2013-02-08 05:11:00,39.0,38.0,-100.00,WSW,244,11.0,18.0,98,-99.99,,,-99.99,,2013-02-08 13:11:00,
2013-02-08 05:21:00,39.0,38.0,-100.00,WSW,245,13.0,21.0,96,-99.99,,,-99.99,,2013-02-08 13:21:00,
2013-02-08 05:32:00,39.0,38.0,-100.00,WSW,243,9.0,17.0,97,-99.99,,,-99.99,,2013-02-08 13:32:00,
2013-02-08 05:42:00,39.0,38.0,-100.00,WSW,243,9.0,17.0,97,-99.99,,,-99.99,,2013-02-08 13:42:00,
2013-02-08 05:51:00,39.0,38.0,-100.00,WSW,250,11.0,21.0,97,-99.99,,,-99.99,,2013-02-08 13:51:00,
2013-02-08 06:01:00,39.0,38.0,-100.00,WSW,249,11.0,18.0,95,-99.99,,,-99.99,,2013-02-08 14:01:00,
2013-02-08 06:11:00,39.0,37.0,-100.00,WSW,256,11.0,18.0,94,-99.99,,,-99.99,,2013-02-08 14:11:00,
2013-02-08 06:21:00,39.0,38.0,-100.00,WSW,253,10.0,17.0,95,-99.99,,,-99.99,,2013-02-08 14:21:00,
2013-02-08 06:32:00,39.0,38.0,-100.00,West,265,11.0,19.0,96,-99.99,,,-99.99,,2013-02-08 14:32:00,
2013-02-08 06:41:00,38.0,37.0,-100.00,West,275,9.0,19.0,95,-99.99,,,-99.99,,2013-02-08 14:41:00,
2013-02-08 06:52:00,38.0,36.0,-100.00,West,273,10.0,19.0,92,-99.99,,,-99.99,,2013-02-08 14:52:00,
2013-02-08 07:01:00,38.0,35.0,-100.00,West,270,10.0,17.0,89,-99.99,,,-99.99,,2013-02-08 15:01:00,
2013-02-08 07:11:00,38.0,36.0,-100.00,West,267,11.0,21.0,91,-99.99,,,-99.99,,2013-02-08 15:11:00,
2013-02-08 07:21:00,38.0,36.0,-100.00,West,260,10.0,19.0,94,-99.99,,,-99.99,,2013-02-08 15:21:00,
2013-02-08 07:31:00,37.0,35.0,-100.00,WSW,257,10.0,20.0,94,-99.99,,,-99.99,,2013-02-08 15:31:00,
2013-02-08 07:41:00,37.0,36.0,-100.00,WSW,258,9.0,15.0,95,-99.99,,,-99.99,,2013-02-08 15:41:00,
2013-02-08 07:51:00,38.0,37.0,-100.00,West,262,9.0,17.0,95,-99.99,,,-99.99,,2013-02-08 15:51:00,
2013-02-08 08:01:00,37.0,36.0,-100.00,West,264,11.0,18.0,96,-99.99,,,-99.99,,2013-02-08 16:01:00,
2013-02-08 08:11:00,37.0,36.0,-100.00,West,260,10.0,18.0,96,-99.99,,,-99.99,,2013-02-08 16:11:00,
2013-02-08 08:21:00,38.0,37.0,-100.00,WSW,252,10.0,18.0,95,-99.99,,,-99.99,,2013-02-08 16:21:00,
2013-02-08 08:32:00,38.0,36.0,-100.00,WSW,243,11.0,17.0,93,-99.99,,,-99.99,,2013-02-08 16:32:00,
2013-02-08 08:41:00,38.0,37.0,-100.00,West,259,10.0,18.0,95,-99.99,,,-99.99,,2013-02-08 16:41:00,
2013-02-08 08:51:00,36.0,35.0,-100.00,West,270,10.0,18.0,98,-99.99,,,-99.99,,2013-02-08 16:51:00,
2013-02-08 09:02:00,36.0,36.0,-100.00,West,270,9.0,15.0,100,-99.99,,,-99.99,,2013-02-08 17:02:00,
2013-02-08 09:11:00,37.0,37.0,-100.00,West,267,9.0,15.0,100,-99.99,,,-99.99,,2013-02-08 17:11:00,
2013-02-08 09:21:00,37.0,37.0,-100.00,WSW,258,10.0,15.0,100,-99.99,,,-99.99,,2013-02-08 17:21:00,
2013-02-08 09:32:00,38.0,38.0,-100.00,WSW,247,10.0,15.0,100,-99.99,,,-99.99,,2013-02-08 17:32:00,
2013-02-08 09:42:00,38.0,36.0,-100.00,WSW,246,12.0,20.0,93,-99.99,,,-99.99,,2013-02-08 17:42:00,
2013-02-08 09:52:00,40.0,36.0,-100.00,WSW,242,12.0,20.0,86,-99.99,,,-99.99,,2013-02-08 17:52:00,
2013-02-08 10:01:00,40.0,35.0,-100.00,WSW,249,11.0,19.0,83,-99.99,,,-99.99,,2013-02-08 18:01:00,
2013-02-08 10:11:00,40.0,34.0,-100.00,WSW,244,11.0,20.0,80,-99.99,,,-99.99,,2013-02-08 18:11:00,
2013-02-08 10:23:00,41.0,35.0,-100.00,WSW,244,11.0,19.0,78,-99.99,,,-99.99,,2013-02-08 18:23:00,
2013-02-08 10:33:00,41.0,33.0,-100.00,WSW,238,12.0,19.0,74,-99.99,,,-99.99,,2013-02-08 18:33:00,
2013-02-08 10:42:00,41.0,35.0,-100.00,WSW,243,11.0,18.0,78,-99.99,,,-99.99,,2013-02-08 18:42:00,
2013-02-08 10:52:00,39.0,35.0,-100.00,WSW,243,10.0,18.0,85,-99.99,,,-99.99,,2013-02-08 18:52:00,
2013-02-08 11:01:00,38.0,37.0,-100.00,WSW,249,9.0,19.0,96,-99.99,,,-99.99,,2013-02-08 19:01:00,
2013-02-08 11:11:00,37.0,37.0,-100.00,WSW,251,8.0,15.0,100,-99.99,,,-99.99,,2013-02-08 19:11:00,
2013-02-08 11:22:00,37.0,37.0,-100.00,WSW,253,9.0,17.0,100,-99.99,,,-99.99,,2013-02-08 19:22:00,
2013-02-08 11:32:00,38.0,38.0,-100.00,WSW,253,8.0,14.0,100,-99.99,,,-99.99,,2013-02-08 19:32:00,
2013-02-08 11:41:00,39.0,38.0,-100.00,WSW,252,8.0,16.0,97,-99.99,,,-99.99,,2013-02-08 19:41:00,
2013-02-08 11:52:00,39.0,38.0,-100.00,West,260,7.0,12.0,95,-99.99,,,-99.99,,2013-02-08 19:52:00,
2013-02-08 12:01:00,39.0,38.0,-100.00,West,260,7.0,12.0,95,-99.99,,,-99.99,,2013-02-08 20:01:00,
2013-02-08 12:11:00,41.0,38.0,-100.00,WSW,243,8.0,14.0,90,-99.99,,,-99.99,,2013-02-08 20:11:00,
2013-02-08 12:21:00,41.0,36.0,-100.00,WSW,237,11.0,18.0,82,-99.99,,,-99.99,,2013-02-08 20:21:00,
2013-02-08 12:31:00,41.0,36.0,-100.00,WSW,246,8.0,16.0,83,-99.99,,,-99.99,,2013-02-08 20:31:00,
2013-02-08 12:41:00,41.0,35.0,-100.00,WSW,239,9.0,19.0,78,-99.99,,,-99.99,,2013-02-08 20:41:00,
2013-02-08 12:52:00,41.0,36.0,-100.00,SW,228,11.0,19.0,82,-99.99,,,-99.99,,2013-02-08 20:52:00,
2013-02-08 13:01:00,41.0,37.0,-100.00,SW,234,11.0,21.0,85,-99.99,,,-99.99,,2013-02-08 21:01:00,
2013-02-08 13:11:00,41.0,36.0,-100.00,SW,231,11.0,19.0,81,-99.99,,,-99.99,,2013-02-08 21:11:00,
2013-02-08 13:21:00,40.0,36.0,-100.00,West,259,9.0,18.0,86,-99.99,,,-99.99,,2013-02-08 21:21:00,
2013-02-08 13:32:00,35.0,34.0,-100.00,West,276,10.0,17.0,98,-99.99,,,-99.99,,2013-02-08 21:32:00,
2013-02-08 13:41:00,34.0,34.0,-100.00,West,266,13.0,23.0,100,-99.99,,,-99.99,,2013-02-08 21:41:00,
2013-02-08 13:52:00,34.0,34.0,-100.00,West,268,10.0,19.0,100,-99.99,,,-99.99,,2013-02-08 21:52:00,
2013-02-08 14:01:00,34.0,34.0,-100.00,West,268,10.0,19.0,100,-99.99,,,-99.99,,2013-02-08 22:01:00,
2013-02-08 14:11:00,34.0,34.0,-100.00,WSW,251,10.0,20.0,100,-99.99,,,-99.99,,2013-02-08 22:11:00,
2013-02-08 14:21:00,36.0,36.0,-100.00,WSW,254,9.0,15.0,100,-99.99,,,-99.99,,2013-02-08 22:21:00,
2013-02-08 14:31:00,37.0,37.0,-100.00,WSW,258,10.0,20.0,100,-99.99,,,-99.99,,2013-02-08 22:31:00,
2013-02-08 14:41:00,38.0,38.0,-100.00,WSW,253,6.0,14.0,100,-99.99,,,-99.99,,2013-02-08 22:41:00,
2013-02-08 14:51:00,38.0,38.0,-100.00,WSW,242,8.0,17.0,100,-99.99,,,-99.99,,2013-02-08 22:51:00,
2013-02-08 15:01:00,37.0,37.0,-100.00,WSW,245,14.0,30.0,100,-99.99,,,-99.99,,2013-02-08 23:01:00,
2013-02-08 15:11:00,36.0,36.0,-100.00,West,264,12.0,21.0,100,-99.99,,,-99.99,,2013-02-08 23:11:00,
2013-02-08 15:21:00,35.0,35.0,-100.00,West,273,8.0,17.0,100,-99.99,,,-99.99,,2013-02-08 23:21:00,
2013-02-08 15:31:00,35.0,35.0,-100.00,West,278,6.0,16.0,100,-99.99,,,-99.99,,2013-02-08 23:31:00,
2013-02-08 15:41:00,36.0,36.0,-100.00,West,268,8.0,16.0,100,-99.99,,,-99.99,,2013-02-08 23:41:00,
2013-02-08 15:52:00,36.0,36.0,-100.00,WSW,254,8.0,17.0,100,-99.99,,,-99.99,,2013-02-08 23:52:00,
2013-02-08 16:01:00,37.0,37.0,-100.00,West,265,9.0,19.0,100,-99.99,,,-99.99,,2013-02-09 00:01:00,
2013-02-08 16:11:00,37.0,37.0,-100.00,WSW,256,6.0,17.0,100,-99.99,,,-99.99,,2013-02-09 00:11:00,
2013-02-08 16:21:00,37.0,37.0,-100.00,WSW,252,7.0,16.0,100,-99.99,,,-99.99,,2013-02-09 00:21:00,
2013-02-08 16:31:00,37.0,37.0,-100.00,SW,236,8.0,15.0,100,-99.99,,,-99.99,,2013-02-09 00:31:00,
2013-02-08 16:41:00,37.0,37.0,-100.00,SW,236,8.0,15.0,100,-99.99,,,-99.99,,2013-02-09 00:41:00,
2013-02-08 16:52:00,37.0,37.0,-100.00,West,274,7.0,14.0,100,-99.99,,,-99.99,,2013-02-09 00:52:00,
2013-02-08 17:01:00,37.0,37.0,-100.00,West,271,10.0,20.0,100,-99.99,,,-99.99,,2013-02-09 01:01:00,
2013-02-08 17:11:00,37.0,37.0,-100.00,West,266,10.0,19.0,100,-99.99,,,-99.99,,2013-02-09 01:11:00,
2013-02-08 17:21:00,36.0,35.0,-100.00,West,268,14.0,24.0,98,-99.99,,,-99.99,,2013-02-09 01:21:00,
2013-02-08 17:31:00,36.0,35.0,-100.00,WSW,253,11.0,20.0,96,-99.99,,,-99.99,,2013-02-09 01:31:00,
2013-02-08 17:41:00,36.0,35.0,-100.00,WSW,244,10.0,21.0,97,-99.99,,,-99.99,,2013-02-09 01:41:00,
2013-02-08 17:52:00,36.0,35.0,-100.00,WSW,249,10.0,19.0,97,-99.99,,,-99.99,,2013-02-09 01:52:00,
2013-02-08 18:01:00,36.0,35.0,-100.00,WSW,238,9.0,14.0,98,-99.99,,,-99.99,,2013-02-09 02:01:00,
2013-02-08 18:11:00,35.0,35.0,-100.00,WSW,245,8.0,16.0,99,-99.99,,,-99.99,,2013-02-09 02:11:00,
2013-02-08 18:21:00,34.0,34.0,-100.00,West,264,10.0,18.0,100,-99.99,,,-99.99,,2013-02-09 02:21:00,
2013-02-08 18:31:00,33.0,33.0,-100.00,West,266,8.0,14.0,100,-99.99,,,-99.99,,2013-02-09 02:31:00,
2013-02-08 18:41:00,33.0,33.0,-100.00,WSW,258,7.0,13.0,100,-99.99,,,-99.99,,2013-02-09 02:41:00,
2013-02-08 18:52:00,33.0,33.0,-100.00,West,261,10.0,21.0,100,-99.99,,,-99.99,,2013-02-09 02:52:00,
2013-02-08 19:01:00,34.0,34.0,-100.00,WSW,255,7.0,12.0,100,-99.99,,,-99.99,,2013-02-09 03:01:00,
2013-02-08 19:11:00,34.0,34.0,-100.00,WSW,254,6.0,12.0,100,-99.99,,,-99.99,,2013-02-09 03:11:00,
2013-02-08 19:21:00,35.0,35.0,-100.00,WSW,257,7.0,14.0,100,-99.99,,,-99.99,,2013-02-09 03:21:00,
2013-02-08 19:31:00,35.0,35.0,-100.00,West,262,6.0,12.0,100,-99.99,,,-99.99,,2013-02-09 03:31:00,
2013-02-08 19:41:00,35.0,35.0,-100.00,WSW,252,8.0,18.0,100,-99.99,,,-99.99,,2013-02-09 03:41:00,
2013-02-08 19:52:00,35.0,35.0,-100.00,WSW,248,8.0,15.0,100,-99.99,,,-99.99,,2013-02-09 03:52:00,
2013-02-08 20:02:00,34.0,34.0,-100.00,West,275,7.0,19.0,100,-99.99,,,-99.99,,2013-02-09 04:02:00,
2013-02-08 20:11:00,33.0,33.0,-100.00,West,275,8.0,16.0,100,-99.99,,,-99.99,,2013-02-09 04:11:00,
2013-02-08 20:22:00,33.0,33.0,-100.00,West,274,8.0,19.0,100,-99.99,,,-99.99,,2013-02-09 04:22:00,
2013-02-08 20:31:00,34.0,34.0,-100.00,West,272,9.0,19.0,100,-99.99,,,-99.99,,2013-02-09 04:31:00,
2013-02-08 20:42:00,34.0,34.0,-100.00,West,274,8.0,16.0,100,-99.99,,,-99.99,,2013-02-09 04:42:00,
2013-02-08 20:51:00,34.0,34.0,-100.00,West,266,9.0,14.0,100,-99.99,,,-99.99,,2013-02-09 04:51:00,
2013-02-08 21:02:00,35.0,35.0,-100.00,West,268,8.0,15.0,100,-99.99,,,-99.99,,2013-02-09 05:02:00,
2013-02-08 21:11:00,34.0,34.0,-100.00,West,268,10.0,18.0,100,-99.99,,,-99.99,,2013-02-09 05:11:00,
2013-02-08 21:22:00,33.0,33.0,-100.00,West,264,11.0,22.0,100,-99.99,,,-99.99,,2013-02-09 05:22:00,
2013-02-08 21:31:00,32.0,32.0,-100.00,WSW,258,8.0,15.0,100,-99.99,,,-99.99,,2013-02-09 05:31:00,
2013-02-08 21:41:00,32.0,32.0,-100.00,WSW,248,7.0,12.0,100,-99.99,,,-99.99,,2013-02-09 05:41:00,
2013-02-08 21:52:00,32.0,32.0,-100.00,WSW,254,7.0,12.0,100,-99.99,,,-99.99,,2013-02-09 05:52:00,
2013-02-08 22:01:00,32.0,32.0,-100.00,West,261,6.0,10.0,100,-99.99,,,-99.99,,2013-02-09 06:01:00,
2013-02-08 22:11:00,32.0,32.0,-100.00,West,266,6.0,13.0,100,-99.99,,,-99.99,,2013-02-09 06:11:00,
2013-02-08 22:21:00,33.0,33.0,-100.00,West,265,8.0,16.0,100,-99.99,,,-99.99,,2013-02-09 06:21:00,
2013-02-08 22:31:00,33.0,33.0,-100.00,West,260,8.0,18.0,100,-99.99,,,-99.99,,2013-02-09 06:31:00,
2013-02-08 22:41:00,33.0,33.0,-100.00,West,269,6.0,11.0,100,-99.99,,,-99.99,,2013-02-09 06:41:00,
2013-02-08 22:51:00,33.0,33.0,-100.00,West,270,5.0,10.0,100,-99.99,,,-99.99,,2013-02-09 06:51:00,
2013-02-08 23:01:00,33.0,33.0,-100.00,West,268,5.0,12.0,100,-99.99,,,-99.99,,2013-02-09 07:01:00,
2013-02-08 23:11:00,33.0,33.0,-100.00,West,266,5.0,11.0,100,-99.99,,,-99.99,,2013-02-09 07:11:00,
2013-02-08 23:21:00,33.0,33.0,-100.00,West,269,5.0,10.0,100,-99.99,,,-99.99,,2013-02-09 07:21:00,
2013-02-08 23:31:00,33.0,33.0,-100.00,West,266,8.0,15.0,100,-99.99,,,-99.99,,2013-02-09 07:31:00,
2013-02-08 23:42:00,33.0,33.0,-100.00,WSW,252,9.0,14.0,100,-99.99,,,-99.99,,2013-02-09 07:42:00,
2013-02-08 23:51:00,33.0,33.0,-100.00,WSW,254,7.0,12.0,100,-99.99,,,-99.99,,2013-02-09 07:51:00,